createdAt,value
2023-06-06T00:00:01.778Z,9.88
2023-06-06T00:00:33.395Z,8.82
2023-06-06T00:01:04.888Z,10.30
2023-06-06T00:01:37.686Z,8.45
2023-06-06T00:02:09.220Z,8.60
2023-06-06T00:02:45.130Z,10.55
2023-06-06T00:03:22.241Z,10.40
2023-06-06T00:03:54.148Z,9.27
2023-06-06T00:04:26.339Z,9.25
2023-06-06T00:04:58.396Z,9.15
2023-06-06T00:05:30.678Z,8.77
2023-06-06T00:06:02.267Z,10.35
2023-06-06T00:06:34.922Z,9.75
2023-06-06T00:07:09.826Z,9.63
2023-06-06T00:07:44.317Z,9.30
2023-06-06T00:08:16.046Z,9.15
2023-06-06T00:08:51.453Z,8.18
2023-06-06T00:09:22.989Z,8.73
2023-06-06T00:09:54.462Z,9.80
2023-06-06T00:10:26.002Z,10.25
2023-06-06T00:10:57.462Z,9.90
2023-06-06T00:11:30.001Z,9.85
2023-06-06T00:12:01.560Z,9.68
2023-06-06T00:12:33.377Z,9.45
2023-06-06T00:13:06.987Z,10.57
2023-06-06T00:13:38.513Z,12.25
2023-06-06T00:14:11.154Z,9.95
2023-06-06T00:14:42.930Z,13.13
2023-06-06T00:15:17.225Z,9.65
2023-06-06T00:15:48.844Z,9.65
2023-06-06T00:16:20.401Z,8.50
2023-06-06T00:16:53.090Z,9.95
2023-06-06T00:17:24.745Z,8.20
2023-06-06T00:17:57.133Z,10.05
2023-06-06T00:18:29.027Z,9.80
2023-06-06T00:19:00.685Z,9.07
2023-06-06T00:19:33.945Z,8.90
2023-06-06T00:20:08.427Z,10.95
2023-06-06T00:20:40.325Z,11.40
2023-06-06T00:21:13.272Z,8.65
2023-06-06T00:21:44.772Z,7.88
2023-06-06T00:22:16.749Z,8.13
2023-06-06T00:22:50.145Z,9.48
2023-06-06T00:23:24.702Z,9.27
2023-06-06T00:23:56.417Z,10.50
2023-06-06T00:24:27.958Z,9.10
2023-06-06T00:24:59.473Z,11.60
2023-06-06T00:25:30.999Z,9.15
2023-06-06T00:26:02.524Z,8.93
2023-06-06T00:26:34.038Z,8.52
2023-06-06T00:27:05.865Z,8.82
2023-06-06T00:27:37.520Z,7.88
2023-06-06T00:28:09.043Z,9.40
2023-06-06T00:28:40.556Z,9.65
2023-06-06T00:29:12.075Z,9.40
2023-06-06T00:29:43.607Z,8.52
2023-06-06T00:30:15.183Z,7.53
2023-06-06T00:30:46.722Z,10.80
2023-06-06T00:31:18.319Z,8.70
2023-06-06T00:31:49.901Z,8.77
2023-06-06T00:32:21.501Z,9.95
2023-06-06T00:32:53.138Z,7.45
2023-06-06T00:33:24.792Z,7.63
2023-06-06T00:33:56.328Z,8.70
2023-06-06T00:34:27.816Z,9.83
2023-06-06T00:34:59.330Z,8.10
2023-06-06T00:35:30.847Z,7.60
2023-06-06T00:36:02.341Z,7.65
2023-06-06T00:36:33.871Z,8.35
2023-06-06T00:37:05.498Z,8.05
2023-06-06T00:37:37.003Z,9.07
2023-06-06T00:38:08.492Z,7.78
2023-06-06T00:38:39.990Z,8.15
2023-06-06T00:39:11.618Z,7.60
2023-06-06T00:39:43.270Z,8.53
2023-06-06T00:40:14.804Z,8.65
2023-06-06T00:40:46.452Z,9.45
2023-06-06T00:41:17.992Z,8.90
2023-06-06T00:41:49.850Z,7.72
2023-06-06T00:42:21.337Z,7.57
2023-06-06T00:42:53.056Z,7.80
2023-06-06T00:43:24.678Z,8.38
2023-06-06T00:43:56.302Z,8.75
2023-06-06T00:44:27.803Z,8.45
2023-06-06T00:44:59.361Z,7.80
2023-06-06T00:45:30.891Z,9.13
2023-06-06T00:46:02.450Z,6.82
2023-06-06T00:46:34.041Z,7.65
2023-06-06T00:47:05.961Z,7.30
2023-06-06T00:47:37.691Z,8.40
2023-06-06T00:48:09.550Z,8.52
2023-06-06T00:48:41.284Z,7.13
2023-06-06T00:49:14.581Z,7.15
2023-06-06T00:49:47.301Z,7.78
2023-06-06T00:50:19.814Z,7.60
2023-06-06T00:50:51.540Z,7.80
2023-06-06T00:51:23.287Z,7.50
2023-06-06T00:51:55.155Z,7.38
2023-06-06T00:52:26.860Z,7.50
2023-06-06T00:52:58.634Z,8.13
2023-06-06T00:53:32.968Z,7.00
2023-06-06T00:54:04.926Z,7.57
2023-06-06T00:54:36.755Z,6.22
2023-06-06T00:55:08.837Z,6.50
2023-06-06T00:55:42.793Z,7.67
2023-06-06T00:56:14.642Z,8.45
2023-06-06T00:56:46.733Z,7.82
2023-06-06T00:57:19.634Z,7.55
2023-06-06T00:57:52.778Z,7.60
2023-06-06T00:58:24.342Z,8.20
2023-06-06T00:58:58.551Z,7.78
2023-06-06T00:59:30.791Z,6.88
2023-06-06T01:00:05.607Z,6.75
2023-06-06T01:00:38.882Z,7.25
2023-06-06T01:01:11.941Z,7.10
2023-06-06T01:01:44.129Z,8.52
2023-06-06T01:02:19.248Z,6.72
2023-06-06T01:02:51.075Z,7.43
2023-06-06T01:03:26.042Z,7.13
2023-06-06T01:04:00.732Z,7.43
2023-06-06T01:04:32.303Z,7.75
2023-06-06T01:05:05.126Z,7.63
2023-06-06T01:05:37.217Z,7.35
2023-06-06T01:06:10.055Z,7.35
2023-06-06T01:06:41.588Z,6.50
2023-06-06T01:07:18.798Z,7.82
2023-06-06T01:07:55.052Z,8.10
2023-06-06T01:08:26.607Z,6.78
2023-06-06T01:08:58.449Z,9.38
2023-06-06T01:09:29.917Z,7.10
2023-06-06T01:10:01.409Z,7.72
2023-06-06T01:10:35.850Z,8.57
2023-06-06T01:11:13.027Z,8.15
2023-06-06T01:12:04.905Z,7.35
2023-06-06T01:12:44.799Z,6.67
2023-06-06T01:13:36.815Z,9.45
2023-06-06T01:14:14.327Z,10.52
2023-06-06T01:14:57.321Z,9.93
2023-06-06T01:15:36.776Z,8.43
2023-06-06T01:16:10.571Z,7.55
2023-06-06T01:16:42.328Z,8.43
2023-06-06T01:17:14.937Z,7.68
2023-06-06T01:17:50.153Z,8.30
2023-06-06T01:18:22.911Z,8.00
2023-06-06T01:18:54.873Z,8.40
2023-06-06T01:19:28.533Z,8.60
2023-06-06T01:20:02.214Z,8.77
2023-06-06T01:20:34.966Z,9.15
2023-06-06T01:21:06.742Z,9.18
2023-06-06T01:21:42.644Z,8.93
2023-06-06T01:22:14.861Z,9.15
2023-06-06T01:22:47.351Z,7.63
2023-06-06T01:23:18.886Z,11.65
2023-06-06T01:23:50.572Z,8.40
2023-06-06T01:24:22.892Z,9.33
2023-06-06T01:24:55.285Z,8.15
2023-06-06T01:25:26.955Z,8.35
2023-06-06T01:25:58.524Z,9.85
2023-06-06T01:26:30.027Z,10.90
2023-06-06T01:27:05.115Z,10.02
2023-06-06T01:27:36.877Z,8.40
2023-06-06T01:28:14.245Z,8.30
2023-06-06T01:28:46.019Z,10.10
2023-06-06T01:29:17.600Z,9.82
2023-06-06T01:29:50.155Z,8.03
2023-06-06T01:30:23.327Z,9.07
2023-06-06T01:30:54.842Z,7.82
2023-06-06T01:31:32.105Z,9.35
2023-06-06T01:32:08.643Z,9.27
2023-06-06T01:32:49.293Z,8.85
2023-06-06T01:33:23.682Z,11.20
2023-06-06T01:33:57.177Z,9.40
2023-06-06T01:34:34.788Z,9.57
2023-06-06T01:35:14.489Z,9.13
2023-06-06T01:35:55.097Z,10.13
2023-06-06T01:36:42.653Z,8.10
2023-06-06T01:37:34.396Z,8.75
2023-06-06T01:38:12.117Z,10.13
2023-06-06T01:38:48.864Z,9.63
2023-06-06T01:39:21.287Z,10.43
2023-06-06T01:39:56.840Z,8.77
2023-06-06T01:40:29.688Z,10.35
2023-06-06T01:41:02.556Z,8.38
2023-06-06T01:41:36.389Z,11.48
2023-06-06T01:42:08.761Z,10.67
2023-06-06T01:42:43.965Z,11.68
2023-06-06T01:43:17.384Z,13.35
2023-06-06T01:43:51.221Z,12.45
2023-06-06T01:44:23.336Z,12.68
2023-06-06T01:44:54.944Z,11.30
2023-06-06T01:45:29.386Z,13.10
2023-06-06T01:46:01.681Z,12.00
2023-06-06T01:46:33.443Z,12.40
2023-06-06T01:47:05.583Z,12.75
2023-06-06T01:47:38.243Z,14.97
2023-06-06T01:48:10.244Z,12.77
2023-06-06T01:48:42.129Z,15.02
2023-06-06T01:49:14.226Z,14.70
2023-06-06T01:49:46.290Z,14.50
2023-06-06T01:50:18.005Z,12.70
2023-06-06T01:50:49.717Z,12.95
2023-06-06T01:51:21.243Z,12.23
2023-06-06T01:51:53.962Z,11.98
2023-06-06T01:52:29.313Z,12.90
2023-06-06T01:53:00.839Z,11.73
2023-06-06T01:53:32.359Z,10.95
2023-06-06T01:54:04.000Z,14.73
2023-06-06T01:54:36.489Z,13.73
2023-06-06T01:55:11.432Z,13.13
2023-06-06T01:55:43.219Z,12.38
2023-06-06T01:56:14.980Z,13.77
2023-06-06T01:56:46.651Z,13.55
2023-06-06T01:57:18.199Z,13.05
2023-06-06T01:57:49.945Z,16.33
2023-06-06T01:58:21.442Z,13.47
2023-06-06T01:58:53.229Z,13.50
2023-06-06T01:59:24.689Z,14.77
2023-06-06T01:59:56.506Z,13.82
2023-06-06T02:00:28.397Z,14.07
2023-06-06T02:01:00.056Z,15.85
2023-06-06T02:01:31.746Z,15.10
2023-06-06T02:02:03.336Z,15.85
2023-06-06T02:02:35.331Z,14.32
2023-06-06T02:03:07.194Z,13.63
2023-06-06T02:03:38.763Z,12.80
2023-06-06T02:04:10.496Z,15.35
2023-06-06T02:04:42.879Z,15.85
2023-06-06T02:05:15.823Z,14.07
2023-06-06T02:05:47.535Z,13.55
2023-06-06T02:06:20.588Z,12.82
2023-06-06T02:06:52.657Z,12.25
2023-06-06T02:07:26.179Z,13.05
2023-06-06T02:07:57.803Z,12.25
2023-06-06T02:08:29.407Z,12.85
2023-06-06T02:09:00.912Z,13.83
2023-06-06T02:09:32.468Z,13.65
2023-06-06T02:10:04.238Z,13.00
2023-06-06T02:10:35.761Z,16.95
2023-06-06T02:11:07.277Z,13.75
2023-06-06T02:11:38.847Z,13.07
2023-06-06T02:12:10.632Z,13.82
2023-06-06T02:12:42.418Z,14.73
2023-06-06T02:13:13.941Z,17.02
2023-06-06T02:13:45.436Z,13.77
2023-06-06T02:14:17.179Z,14.10
2023-06-06T02:14:49.641Z,15.10
2023-06-06T02:15:22.298Z,12.43
2023-06-06T02:15:53.826Z,14.07
2023-06-06T02:16:25.388Z,13.80
2023-06-06T02:16:57.034Z,12.38
2023-06-06T02:17:28.627Z,12.88
2023-06-06T02:18:02.392Z,11.52
2023-06-06T02:18:34.332Z,13.07
2023-06-06T02:19:06.114Z,13.73
2023-06-06T02:19:37.622Z,13.37
2023-06-06T02:20:10.865Z,12.60
2023-06-06T02:20:42.397Z,13.63
2023-06-06T02:21:14.034Z,13.13
2023-06-06T02:21:45.749Z,13.73
2023-06-06T02:22:17.422Z,13.18
2023-06-06T02:22:49.952Z,12.65
2023-06-06T02:23:21.564Z,12.48
2023-06-06T02:23:53.112Z,13.30
2023-06-06T02:24:27.347Z,12.00
2023-06-06T02:24:59.001Z,13.97
2023-06-06T02:25:30.504Z,12.80
2023-06-06T02:26:02.059Z,13.82
2023-06-06T02:26:36.730Z,12.25
2023-06-06T02:27:10.983Z,11.77
2023-06-06T02:27:49.568Z,13.38
2023-06-06T02:28:21.777Z,11.88
2023-06-06T02:28:53.335Z,12.43
2023-06-06T02:29:25.602Z,11.90
2023-06-06T02:29:57.278Z,13.98
2023-06-06T02:30:28.849Z,11.83
2023-06-06T02:31:01.371Z,17.15
2023-06-06T02:31:33.464Z,14.48
2023-06-06T02:32:05.128Z,14.20
2023-06-06T02:32:36.687Z,14.48
2023-06-06T02:33:09.266Z,14.07
2023-06-06T02:33:40.759Z,14.65
2023-06-06T02:34:12.274Z,11.40
2023-06-06T02:34:43.861Z,13.55
2023-06-06T02:35:17.533Z,12.93
2023-06-06T02:35:50.651Z,13.30
2023-06-06T02:36:22.182Z,12.63
2023-06-06T02:36:54.789Z,11.27
2023-06-06T02:37:28.181Z,12.20
2023-06-06T02:37:59.717Z,13.98
2023-06-06T02:38:31.223Z,11.73
2023-06-06T02:39:02.922Z,14.02
2023-06-06T02:39:37.026Z,13.90
2023-06-06T02:40:10.184Z,14.38
2023-06-06T02:40:41.936Z,12.90
2023-06-06T02:41:13.435Z,13.03
2023-06-06T02:41:44.985Z,12.98
2023-06-06T02:42:16.470Z,12.48
2023-06-06T02:42:48.000Z,12.90
2023-06-06T02:43:19.567Z,13.00
2023-06-06T02:43:51.148Z,11.25
2023-06-06T02:44:22.699Z,13.50
2023-06-06T02:44:54.211Z,14.48
2023-06-06T02:45:26.182Z,15.75
2023-06-06T02:45:57.699Z,14.38
2023-06-06T02:46:29.283Z,11.77
2023-06-06T02:47:00.900Z,13.27
2023-06-06T02:47:32.431Z,12.90
2023-06-06T02:48:04.212Z,14.00
2023-06-06T02:48:35.765Z,12.27
2023-06-06T02:49:07.321Z,11.77
2023-06-06T02:49:38.853Z,12.43
2023-06-06T02:50:11.970Z,13.00
2023-06-06T02:50:43.640Z,12.15
2023-06-06T02:51:15.657Z,12.68
2023-06-06T02:51:47.891Z,12.90
2023-06-06T02:52:19.372Z,12.23
2023-06-06T02:52:52.702Z,13.02
2023-06-06T02:53:24.951Z,12.13
2023-06-06T02:53:56.443Z,12.30
2023-06-06T02:54:27.975Z,12.60
2023-06-06T02:54:59.659Z,12.35
2023-06-06T02:55:31.717Z,11.88
2023-06-06T02:56:03.202Z,11.27
2023-06-06T02:56:34.752Z,13.00
2023-06-06T02:57:06.445Z,11.70
2023-06-06T02:57:38.153Z,12.63
2023-06-06T02:58:45.647Z,13.40
2023-06-06T02:59:17.258Z,11.40
2023-06-06T02:59:49.114Z,13.15
2023-06-06T03:00:20.701Z,11.73
2023-06-06T03:00:52.847Z,12.70
2023-06-06T03:01:24.358Z,12.52
2023-06-06T03:01:55.898Z,16.73
2023-06-06T03:02:28.003Z,13.38
2023-06-06T03:03:00.246Z,13.80
2023-06-06T03:03:31.965Z,13.68
2023-06-06T03:04:03.949Z,13.98
2023-06-06T03:04:35.558Z,14.52
2023-06-06T03:05:07.513Z,12.45
2023-06-06T03:05:39.885Z,12.77
2023-06-06T03:06:11.362Z,13.68
2023-06-06T03:06:43.095Z,12.98
2023-06-06T03:07:14.919Z,15.13
2023-06-06T03:07:46.512Z,14.60
2023-06-06T03:08:18.781Z,12.17
2023-06-06T03:08:52.601Z,13.93
2023-06-06T03:09:25.838Z,13.05
2023-06-06T03:09:57.572Z,13.60
2023-06-06T03:10:29.090Z,11.98
2023-06-06T03:11:01.088Z,12.23
2023-06-06T03:11:32.981Z,12.60
2023-06-06T03:12:04.567Z,15.07
2023-06-06T03:12:36.051Z,13.43
2023-06-06T03:13:07.755Z,12.23
2023-06-06T03:13:39.583Z,15.17
2023-06-06T03:14:11.057Z,12.50
2023-06-06T03:14:55.979Z,13.88
2023-06-06T03:15:30.450Z,12.48
2023-06-06T03:16:02.090Z,14.02
2023-06-06T03:16:36.073Z,11.98
2023-06-06T03:17:08.815Z,12.15
2023-06-06T03:17:41.480Z,13.18
2023-06-06T03:18:18.118Z,12.20
2023-06-06T03:18:49.737Z,14.07
2023-06-06T03:19:21.241Z,14.67
2023-06-06T03:19:52.929Z,12.88
2023-06-06T03:20:24.430Z,13.75
2023-06-06T03:20:55.932Z,12.48
2023-06-06T03:21:27.449Z,13.05
2023-06-06T03:22:00.364Z,15.88
2023-06-06T03:22:32.329Z,13.50
2023-06-06T03:23:03.963Z,14.77
2023-06-06T03:23:35.548Z,12.23
2023-06-06T03:24:07.278Z,13.68
2023-06-06T03:24:39.283Z,14.13
2023-06-06T03:25:11.223Z,14.50
2023-06-06T03:25:44.434Z,12.55
2023-06-06T03:26:16.948Z,13.50
2023-06-06T03:26:48.660Z,12.77
2023-06-06T03:27:20.510Z,13.65
2023-06-06T03:27:52.042Z,13.15
2023-06-06T03:28:23.572Z,14.55
2023-06-06T03:28:57.889Z,13.68
2023-06-06T03:29:29.729Z,13.85
2023-06-06T03:30:03.738Z,13.73
2023-06-06T03:30:35.263Z,16.20
2023-06-06T03:31:07.542Z,14.52
2023-06-06T03:31:39.234Z,12.57
2023-06-06T03:32:10.881Z,13.80
2023-06-06T03:32:43.275Z,13.68
2023-06-06T03:33:15.765Z,17.58
2023-06-06T03:33:47.408Z,14.43
2023-06-06T03:34:19.000Z,15.50
2023-06-06T03:34:50.584Z,13.38
2023-06-06T03:35:22.131Z,16.00
2023-06-06T03:35:53.658Z,14.15
2023-06-06T03:36:25.217Z,13.48
2023-06-06T03:36:56.794Z,13.25
2023-06-06T03:37:28.322Z,13.18
2023-06-06T03:38:00.013Z,16.42
2023-06-06T03:38:31.577Z,13.45
2023-06-06T03:39:03.669Z,13.00
2023-06-06T03:39:35.899Z,15.20
2023-06-06T03:40:09.531Z,16.02
2023-06-06T03:40:41.089Z,13.63
2023-06-06T03:41:12.971Z,14.80
2023-06-06T03:41:44.666Z,14.73
2023-06-06T03:42:16.191Z,14.32
2023-06-06T03:42:47.681Z,15.18
2023-06-06T03:43:19.281Z,16.42
2023-06-06T03:43:50.805Z,15.98
2023-06-06T03:44:22.271Z,14.68
2023-06-06T03:44:53.761Z,15.10
2023-06-06T03:45:25.466Z,16.88
2023-06-06T03:45:57.162Z,13.67
2023-06-06T03:46:28.758Z,15.90
2023-06-06T03:47:00.513Z,15.50
2023-06-06T03:47:32.339Z,16.48
2023-06-06T03:48:04.027Z,14.98
2023-06-06T03:48:35.572Z,16.75
2023-06-06T03:49:07.067Z,16.40
2023-06-06T03:49:38.612Z,14.77
2023-06-06T03:50:10.244Z,15.77
2023-06-06T03:50:41.866Z,14.77
2023-06-06T03:51:13.360Z,13.80
2023-06-06T03:51:44.914Z,14.93
2023-06-06T03:52:16.647Z,14.82
2023-06-06T03:52:48.343Z,15.32
2023-06-06T03:53:19.974Z,15.45
2023-06-06T03:53:51.634Z,15.55
2023-06-06T03:54:23.935Z,17.27
2023-06-06T03:54:56.553Z,13.88
2023-06-06T03:55:28.085Z,15.43
2023-06-06T03:56:00.399Z,16.13
2023-06-06T03:56:31.958Z,14.30
2023-06-06T03:57:04.258Z,13.70
2023-06-06T03:57:36.905Z,15.52
2023-06-06T03:58:08.592Z,13.00
2023-06-06T03:58:40.079Z,15.85
2023-06-06T03:59:13.448Z,12.50
2023-06-06T03:59:45.341Z,14.45
2023-06-06T04:00:16.933Z,14.65
2023-06-06T04:00:48.442Z,15.65
2023-06-06T04:01:21.848Z,14.73
2023-06-06T04:01:54.392Z,16.60
2023-06-06T04:02:27.131Z,13.88
2023-06-06T04:02:58.737Z,14.45
2023-06-06T04:03:37.759Z,15.50
2023-06-06T04:04:09.895Z,15.15
2023-06-06T04:04:42.857Z,14.77
2023-06-06T04:05:14.753Z,12.73
2023-06-06T04:05:46.972Z,15.93
2023-06-06T04:06:18.547Z,16.05
2023-06-06T04:06:50.061Z,16.40
2023-06-06T04:07:21.597Z,15.13
2023-06-06T04:07:53.276Z,14.48
2023-06-06T04:08:24.774Z,15.00
2023-06-06T04:08:59.250Z,15.35
2023-06-06T04:09:30.969Z,14.00
2023-06-06T04:10:02.757Z,12.45
2023-06-06T04:10:34.299Z,12.60
2023-06-06T04:11:05.934Z,13.75
2023-06-06T04:11:37.850Z,15.80
2023-06-06T04:12:10.081Z,13.55
2023-06-06T04:12:41.561Z,13.63
2023-06-06T04:13:13.291Z,14.65
2023-06-06T04:13:44.759Z,13.27
2023-06-06T04:14:16.364Z,13.75
2023-06-06T04:14:48.615Z,13.07
2023-06-06T04:15:20.158Z,15.00
2023-06-06T04:15:51.688Z,15.18
2023-06-06T04:16:23.329Z,16.55
2023-06-06T04:16:54.898Z,16.77
2023-06-06T04:17:27.886Z,14.45
2023-06-06T04:17:59.472Z,16.77
2023-06-06T04:18:30.962Z,14.70
2023-06-06T04:19:04.174Z,15.07
2023-06-06T04:19:36.113Z,13.98
2023-06-06T04:20:09.640Z,14.73
2023-06-06T04:20:41.181Z,14.40
2023-06-06T04:21:12.826Z,13.43
2023-06-06T04:21:44.332Z,13.88
2023-06-06T04:22:16.512Z,12.68
2023-06-06T04:22:48.030Z,14.38
2023-06-06T04:23:19.805Z,14.23
2023-06-06T04:23:52.323Z,12.95
2023-06-06T04:24:23.897Z,14.73
2023-06-06T04:24:55.397Z,14.60
2023-06-06T04:25:27.160Z,14.68
2023-06-06T04:25:58.661Z,13.48
2023-06-06T04:26:33.494Z,14.27
2023-06-06T04:27:05.313Z,14.35
2023-06-06T04:27:38.388Z,14.27
2023-06-06T04:28:09.960Z,15.57
2023-06-06T04:28:41.574Z,15.93
2023-06-06T04:29:14.422Z,13.05
2023-06-06T04:29:46.131Z,14.98
2023-06-06T04:30:23.610Z,13.88
2023-06-06T04:30:56.321Z,16.45
2023-06-06T04:31:30.607Z,15.00
2023-06-06T04:32:03.082Z,13.75
2023-06-06T04:32:34.645Z,14.00
2023-06-06T04:33:06.525Z,14.90
2023-06-06T04:33:38.208Z,12.45
2023-06-06T04:34:10.949Z,13.83
2023-06-06T04:34:42.657Z,14.48
2023-06-06T04:35:14.312Z,14.75
2023-06-06T04:35:45.813Z,12.77
2023-06-06T04:36:17.291Z,13.18
2023-06-06T04:36:52.910Z,15.85
2023-06-06T04:37:25.306Z,15.15
2023-06-06T04:37:58.510Z,14.60
2023-06-06T04:38:30.478Z,14.85
2023-06-06T04:39:02.515Z,12.50
2023-06-06T04:39:34.812Z,13.70
2023-06-06T04:40:08.011Z,13.93
2023-06-06T04:41:00.482Z,15.70
2023-06-06T04:42:09.230Z,14.43
2023-06-06T04:42:41.532Z,14.25
2023-06-06T04:43:13.037Z,14.70
2023-06-06T04:43:50.371Z,12.93
2023-06-06T04:44:21.985Z,14.93
2023-06-06T04:44:53.486Z,13.75
2023-06-06T04:45:25.073Z,14.03
2023-06-06T04:46:02.409Z,14.10
2023-06-06T04:46:34.011Z,13.40
2023-06-06T04:47:05.760Z,12.73
2023-06-06T04:47:40.171Z,13.77
2023-06-06T04:48:14.105Z,12.88
2023-06-06T04:48:46.191Z,13.73
2023-06-06T04:49:18.135Z,14.68
2023-06-06T04:49:50.192Z,15.27
2023-06-06T04:50:21.748Z,15.27
2023-06-06T04:50:53.412Z,14.77
2023-06-06T04:51:31.934Z,16.20
2023-06-06T04:52:04.848Z,14.32
2023-06-06T04:52:37.167Z,14.60
2023-06-06T04:53:08.672Z,13.43
2023-06-06T04:53:43.728Z,13.60
2023-06-06T04:54:15.401Z,14.18
2023-06-06T04:54:47.253Z,12.73
2023-06-06T04:55:19.466Z,13.82
2023-06-06T04:55:51.121Z,14.57
2023-06-06T04:56:22.616Z,16.63
2023-06-06T04:56:54.091Z,15.50
2023-06-06T04:57:25.765Z,14.07
2023-06-06T04:57:59.955Z,14.00
2023-06-06T04:58:32.710Z,15.05
2023-06-06T04:59:08.198Z,16.10
2023-06-06T04:59:40.840Z,13.45
2023-06-06T05:00:14.218Z,13.57
2023-06-06T05:00:46.658Z,16.10
2023-06-06T05:01:18.943Z,14.18
2023-06-06T05:01:50.529Z,15.40
2023-06-06T05:02:23.478Z,18.10
2023-06-06T05:02:56.108Z,15.30
2023-06-06T05:03:30.137Z,13.43
2023-06-06T05:04:01.888Z,13.55
2023-06-06T05:04:33.727Z,14.82
2023-06-06T05:05:06.134Z,14.00
2023-06-06T05:05:37.755Z,14.40
2023-06-06T05:06:09.347Z,14.18
2023-06-06T05:06:41.336Z,16.55
2023-06-06T05:07:13.765Z,14.90
2023-06-06T05:07:45.293Z,15.35
2023-06-06T05:08:16.832Z,14.40
2023-06-06T05:08:49.793Z,13.88
2023-06-06T05:09:21.822Z,13.57
2023-06-06T05:09:53.686Z,14.40
2023-06-06T05:10:25.154Z,13.27
2023-06-06T05:10:56.709Z,15.07
2023-06-06T05:11:28.247Z,15.20
2023-06-06T05:12:00.481Z,14.65
2023-06-06T05:12:31.951Z,14.73
2023-06-06T05:13:03.594Z,13.35
2023-06-06T05:13:35.819Z,14.75
2023-06-06T05:14:07.296Z,14.52
2023-06-06T05:14:38.815Z,13.63
2023-06-06T05:15:10.523Z,14.88
2023-06-06T05:15:42.031Z,13.70
2023-06-06T05:16:14.309Z,15.50
2023-06-06T05:16:48.238Z,12.98
2023-06-06T05:17:22.207Z,13.50
2023-06-06T05:17:57.450Z,15.17
2023-06-06T05:18:31.821Z,16.88
2023-06-06T05:19:03.542Z,13.70
2023-06-06T05:19:36.286Z,15.68
2023-06-06T05:20:11.900Z,13.45
2023-06-06T05:20:43.417Z,14.93
2023-06-06T05:21:19.037Z,12.77
2023-06-06T05:21:50.677Z,13.38
2023-06-06T05:22:22.207Z,13.57
2023-06-06T05:22:53.714Z,13.77
2023-06-06T05:23:26.652Z,14.37
2023-06-06T05:24:00.094Z,13.15
2023-06-06T05:24:31.857Z,16.20
2023-06-06T05:25:03.550Z,16.27
2023-06-06T05:25:35.124Z,13.48
2023-06-06T05:26:06.758Z,14.93
2023-06-06T05:26:38.342Z,15.07
2023-06-06T05:27:09.846Z,13.40
2023-06-06T05:27:41.303Z,14.90
2023-06-06T05:28:12.963Z,14.13
2023-06-06T05:28:44.437Z,14.70
2023-06-06T05:29:16.256Z,14.20
2023-06-06T05:29:47.786Z,17.08
2023-06-06T05:30:19.303Z,14.98
2023-06-06T05:30:53.209Z,14.50
2023-06-06T05:31:24.785Z,15.95
2023-06-06T05:31:56.318Z,15.43
2023-06-06T05:32:27.865Z,15.32
2023-06-06T05:32:59.457Z,13.15
2023-06-06T05:33:34.140Z,14.27
2023-06-06T05:34:05.672Z,14.93
2023-06-06T05:34:37.247Z,17.45
2023-06-06T05:35:09.044Z,18.65
2023-06-06T05:35:40.895Z,16.23
2023-06-06T05:36:12.414Z,15.98
2023-06-06T05:36:43.921Z,14.40
2023-06-06T05:37:15.455Z,14.80
2023-06-06T05:37:46.956Z,16.00
2023-06-06T05:38:19.325Z,14.98
2023-06-06T05:38:50.825Z,14.93
2023-06-06T05:39:23.794Z,15.03
2023-06-06T05:39:55.816Z,13.13
2023-06-06T05:40:27.328Z,13.02
2023-06-06T05:40:58.865Z,14.07
2023-06-06T05:41:30.534Z,15.52
2023-06-06T05:42:02.254Z,13.23
2023-06-06T05:42:33.826Z,14.85
2023-06-06T05:43:05.894Z,13.18
2023-06-06T05:43:37.422Z,14.40
2023-06-06T05:44:08.919Z,13.73
2023-06-06T05:44:40.382Z,16.80
2023-06-06T05:45:11.918Z,14.65
2023-06-06T05:45:45.258Z,13.95
2023-06-06T05:46:17.656Z,12.43
2023-06-06T05:46:50.197Z,15.02
2023-06-06T05:47:22.077Z,13.68
2023-06-06T05:47:53.649Z,13.38
2023-06-06T05:48:25.122Z,15.15
2023-06-06T05:48:56.678Z,14.55
2023-06-06T05:49:28.222Z,13.93
2023-06-06T05:49:59.692Z,13.77
2023-06-06T05:50:31.649Z,14.55
2023-06-06T05:51:04.097Z,14.73
2023-06-06T05:51:35.587Z,14.00
2023-06-06T05:52:07.154Z,14.15
2023-06-06T05:52:38.741Z,14.18
2023-06-06T05:53:10.255Z,16.02
2023-06-06T05:53:45.737Z,14.27
2023-06-06T05:54:17.819Z,14.88
2023-06-06T05:54:50.619Z,14.80
2023-06-06T05:55:32.381Z,14.90
2023-06-06T05:56:04.077Z,17.45
2023-06-06T05:56:35.674Z,15.35
2023-06-06T05:57:18.812Z,15.35
2023-06-06T05:57:50.257Z,14.07
2023-06-06T05:58:21.783Z,14.55
2023-06-06T05:58:54.173Z,16.10
2023-06-06T05:59:26.425Z,14.73
2023-06-06T06:00:02.257Z,13.95
2023-06-06T06:00:34.803Z,15.48
2023-06-06T06:01:06.621Z,14.37
2023-06-06T06:01:41.057Z,16.17
2023-06-06T06:02:16.279Z,17.65
2023-06-06T06:02:48.672Z,15.27
2023-06-06T06:03:22.170Z,16.58
2023-06-06T06:03:54.341Z,17.90
2023-06-06T06:04:26.041Z,17.38
2023-06-06T06:04:57.779Z,16.42
2023-06-06T06:05:29.938Z,18.30
2023-06-06T06:06:04.184Z,17.45
2023-06-06T06:06:36.612Z,16.53
2023-06-06T06:07:08.387Z,17.02
2023-06-06T06:07:41.017Z,20.33
2023-06-06T06:08:12.686Z,18.08
2023-06-06T06:08:45.657Z,18.17
2023-06-06T06:09:23.161Z,20.90
2023-06-06T06:09:55.666Z,18.35
2023-06-06T06:10:31.335Z,19.67
2023-06-06T06:11:03.086Z,15.60
2023-06-06T06:11:34.570Z,18.77
2023-06-06T06:12:06.919Z,19.33
2023-06-06T06:12:38.414Z,18.88
2023-06-06T06:13:10.013Z,17.45
2023-06-06T06:13:41.480Z,17.63
2023-06-06T06:14:12.991Z,18.35
2023-06-06T06:14:44.505Z,18.83
2023-06-06T06:15:16.007Z,17.42
2023-06-06T06:15:47.821Z,18.63
2023-06-06T06:16:19.470Z,18.73
2023-06-06T06:16:51.047Z,18.80
2023-06-06T06:17:23.798Z,19.13
2023-06-06T06:17:55.605Z,19.25
2023-06-06T06:18:27.395Z,20.25
2023-06-06T06:18:59.008Z,19.85
2023-06-06T06:19:30.707Z,21.00
2023-06-06T06:20:07.988Z,18.40
2023-06-06T06:20:39.596Z,18.58
2023-06-06T06:21:11.316Z,19.88
2023-06-06T06:21:43.109Z,19.85
2023-06-06T06:22:14.727Z,20.05
2023-06-06T06:22:46.632Z,20.20
2023-06-06T06:23:18.128Z,19.48
2023-06-06T06:23:50.597Z,22.05
2023-06-06T06:24:22.154Z,21.63
2023-06-06T06:24:53.608Z,21.50
2023-06-06T06:25:25.690Z,20.38
2023-06-06T06:25:57.381Z,21.85
2023-06-06T06:26:29.015Z,21.83
2023-06-06T06:27:00.888Z,22.30
2023-06-06T06:27:32.737Z,22.45
2023-06-06T06:28:04.271Z,21.90
2023-06-06T06:28:35.741Z,20.40
2023-06-06T06:29:07.319Z,20.58
2023-06-06T06:29:38.813Z,20.88
2023-06-06T06:30:11.236Z,22.70
2023-06-06T06:30:42.733Z,20.58
2023-06-06T06:31:14.433Z,24.83
2023-06-06T06:31:46.091Z,20.23
2023-06-06T06:32:20.801Z,22.35
2023-06-06T06:32:52.401Z,22.67
2023-06-06T06:33:23.908Z,22.43
2023-06-06T06:33:55.458Z,24.90
2023-06-06T06:34:27.072Z,23.23
2023-06-06T06:34:58.566Z,23.30
2023-06-06T06:35:30.079Z,20.73
2023-06-06T06:36:02.073Z,23.40
2023-06-06T06:36:34.002Z,22.98
2023-06-06T06:37:05.500Z,22.00
2023-06-06T06:37:41.186Z,23.80
2023-06-06T06:38:13.073Z,21.75
2023-06-06T06:38:44.672Z,22.50
2023-06-06T06:39:20.074Z,24.05
2023-06-06T06:39:51.955Z,23.60
2023-06-06T06:40:23.452Z,22.45
2023-06-06T06:40:55.231Z,23.27
2023-06-06T06:41:27.528Z,22.75
2023-06-06T06:41:59.107Z,25.95
2023-06-06T06:42:30.959Z,25.90
2023-06-06T06:43:02.469Z,24.75
2023-06-06T06:43:33.988Z,23.42
2023-06-06T06:44:05.502Z,23.63
2023-06-06T06:44:36.958Z,24.00
2023-06-06T06:45:09.675Z,25.90
2023-06-06T06:45:41.205Z,24.83
2023-06-06T06:46:13.258Z,24.70
2023-06-06T06:46:44.824Z,28.02
2023-06-06T06:47:16.426Z,27.52
2023-06-06T06:47:48.079Z,26.05
2023-06-06T06:48:19.595Z,26.58
2023-06-06T06:48:52.193Z,28.02
2023-06-06T06:49:23.957Z,25.23
2023-06-06T06:49:55.455Z,25.83
2023-06-06T06:50:27.146Z,25.50
2023-06-06T06:50:58.613Z,23.75
2023-06-06T06:51:33.164Z,25.20
2023-06-06T06:52:04.696Z,25.50
2023-06-06T06:52:37.121Z,24.48
2023-06-06T06:53:10.530Z,25.17
2023-06-06T06:53:42.110Z,27.98
2023-06-06T06:54:13.905Z,25.65
2023-06-06T06:54:46.081Z,23.87
2023-06-06T06:55:18.040Z,23.95
2023-06-06T06:55:53.852Z,25.75
2023-06-06T06:56:25.527Z,23.60
2023-06-06T06:56:57.270Z,23.52
2023-06-06T06:57:29.863Z,25.95
2023-06-06T06:58:02.895Z,24.85
2023-06-06T06:58:39.064Z,24.13
2023-06-06T06:59:10.794Z,23.45
2023-06-06T06:59:42.556Z,25.13
2023-06-06T07:00:15.719Z,26.07
2023-06-06T07:00:47.653Z,25.70
2023-06-06T07:01:20.331Z,26.15
2023-06-06T07:01:51.969Z,25.00
2023-06-06T07:02:31.839Z,26.25